createdAt,value
2024-01-31T00:01:45.666Z,34.47
2024-01-31T00:06:52.666Z,39.50
2024-01-31T00:11:56.111Z,41.73
2024-01-31T00:17:00.133Z,48.97
2024-01-31T00:22:03.602Z,41.37
2024-01-31T00:27:07.140Z,44.97
2024-01-31T00:32:10.656Z,47.87
2024-01-31T00:37:14.122Z,42.70
2024-01-31T00:42:17.663Z,46.13
2024-01-31T00:47:21.604Z,35.87
2024-01-31T00:52:25.215Z,46.57
2024-01-31T00:57:28.772Z,39.70
2024-01-31T01:02:32.839Z,49.53
2024-01-31T01:07:40.576Z,37.67
2024-01-31T01:12:44.510Z,45.27
2024-01-31T01:17:47.934Z,44.57
2024-01-31T01:22:51.358Z,43.50
2024-01-31T01:27:54.789Z,39.50
2024-01-31T01:32:58.345Z,45.17
2024-01-31T01:38:01.896Z,41.90
2024-01-31T01:43:21.988Z,41.43
2024-01-31T01:48:26.001Z,36.10
2024-01-31T01:53:33.585Z,35.77
2024-01-31T01:58:38.970Z,39.07
2024-01-31T02:03:44.819Z,41.57
2024-01-31T02:08:49.688Z,42.03
2024-01-31T02:13:53.242Z,36.13
2024-01-31T02:18:56.859Z,37.80
2024-01-31T02:24:00.424Z,42.90
2024-01-31T02:29:04.268Z,46.40
2024-01-31T02:34:07.752Z,41.10
2024-01-31T02:39:11.076Z,34.63
2024-01-31T02:44:14.517Z,37.83
2024-01-31T02:49:18.130Z,40.43
2024-01-31T02:54:21.480Z,38.43
2024-01-31T02:59:25.328Z,32.20
2024-01-31T03:04:29.516Z,36.00
2024-01-31T03:09:32.985Z,35.43
2024-01-31T03:14:36.604Z,40.00
2024-01-31T03:19:41.878Z,33.10
2024-01-31T03:24:46.221Z,37.10
2024-01-31T03:29:49.748Z,39.67
2024-01-31T03:34:53.248Z,81.00
2024-01-31T03:39:56.894Z,44.83
2024-01-31T03:45:00.465Z,65.27
2024-01-31T03:50:05.829Z,43.97
2024-01-31T03:55:10.493Z,54.10
2024-01-31T04:00:14.820Z,47.13
2024-01-31T04:05:18.620Z,52.10
2024-01-31T04:10:22.342Z,52.17
2024-01-31T04:15:25.844Z,49.77
2024-01-31T04:20:29.347Z,44.90
2024-01-31T04:25:33.219Z,56.13
2024-01-31T04:30:36.639Z,51.97
2024-01-31T04:35:40.085Z,57.10
2024-01-31T04:40:43.464Z,54.30
2024-01-31T04:45:46.769Z,45.37
2024-01-31T04:50:51.419Z,51.87
2024-01-31T04:55:55.072Z,60.73
2024-01-31T05:00:59.462Z,40.10
2024-01-31T05:06:04.217Z,47.40
2024-01-31T05:11:07.848Z,41.70
2024-01-31T05:16:11.698Z,57.13
2024-01-31T05:21:15.241Z,47.07
2024-01-31T05:26:19.460Z,50.40
2024-01-31T05:31:22.976Z,50.33
2024-01-31T05:36:26.397Z,58.13
2024-01-31T05:41:29.801Z,53.33
2024-01-31T05:46:33.686Z,43.83
2024-01-31T05:51:37.191Z,46.23
2024-01-31T05:56:40.837Z,47.00
2024-01-31T06:01:44.415Z,44.50
2024-01-31T06:06:47.916Z,61.10
2024-01-31T06:11:51.385Z,50.13
2024-01-31T06:16:54.935Z,65.60
2024-01-31T06:21:58.375Z,45.20
2024-01-31T06:27:01.942Z,47.60
2024-01-31T06:32:06.375Z,61.93
2024-01-31T06:37:09.897Z,50.70
2024-01-31T06:42:13.254Z,58.27
2024-01-31T06:47:18.096Z,51.30
2024-01-31T06:52:22.142Z,61.53
2024-01-31T06:57:25.810Z,79.90
2024-01-31T07:02:29.275Z,73.90
2024-01-31T07:07:34.539Z,71.10
2024-01-31T07:12:38.019Z,64.57
2024-01-31T07:17:41.618Z,61.50
2024-01-31T07:22:45.801Z,74.07
2024-01-31T07:27:50.852Z,61.60
2024-01-31T07:32:54.724Z,59.17
2024-01-31T07:37:58.114Z,66.20
2024-01-31T07:43:01.524Z,58.33
2024-01-31T07:48:05.791Z,57.67
2024-01-31T07:53:09.225Z,191.97
2024-01-31T07:58:12.805Z,62.87
2024-01-31T08:03:16.366Z,74.60
2024-01-31T08:08:19.859Z,71.63
2024-01-31T08:13:23.474Z,57.20
2024-01-31T08:18:26.867Z,60.57
2024-01-31T08:23:30.277Z,69.13
2024-01-31T08:28:33.683Z,68.37
2024-01-31T08:33:37.474Z,66.87
2024-01-31T08:38:44.503Z,69.13
2024-01-31T08:43:48.566Z,71.63
2024-01-31T08:48:52.176Z,79.37
2024-01-31T08:53:55.499Z,67.03
2024-01-31T08:58:59.075Z,54.70
2024-01-31T09:04:02.974Z,64.23
2024-01-31T09:09:07.658Z,60.27
2024-01-31T09:14:10.996Z,62.60
2024-01-31T09:19:14.550Z,54.27
2024-01-31T09:24:18.397Z,52.93
2024-01-31T09:29:21.706Z,51.53
2024-01-31T09:34:25.526Z,40.93
2024-01-31T09:39:31.741Z,41.40
2024-01-31T09:44:36.534Z,41.10
2024-01-31T09:49:40.382Z,45.60
2024-01-31T09:54:47.231Z,39.30
2024-01-31T09:59:52.081Z,52.10
2024-01-31T10:04:56.307Z,56.00
2024-01-31T10:10:01.296Z,49.83
2024-01-31T10:15:08.370Z,55.07
2024-01-31T10:20:14.222Z,55.90
2024-01-31T10:25:21.151Z,55.60
2024-01-31T10:30:25.248Z,43.23
2024-01-31T10:35:48.401Z,38.13
2024-01-31T10:40:56.688Z,36.50
2024-01-31T10:46:00.496Z,44.90
2024-01-31T10:51:05.756Z,40.03
2024-01-31T10:56:11.858Z,39.83
2024-01-31T11:01:17.719Z,37.33
2024-01-31T11:06:21.478Z,44.00
2024-01-31T11:11:25.189Z,34.07
2024-01-31T11:16:28.782Z,36.90
2024-01-31T11:21:41.093Z,54.27
2024-01-31T11:26:44.845Z,40.77
2024-01-31T11:31:48.593Z,38.93
2024-01-31T11:36:52.077Z,35.13
2024-01-31T11:41:56.215Z,31.27
2024-01-31T11:46:59.507Z,41.63
2024-01-31T11:52:04.886Z,43.23
2024-01-31T11:57:08.534Z,40.37
2024-01-31T12:02:12.048Z,43.87
2024-01-31T12:07:15.894Z,35.10
2024-01-31T12:12:20.423Z,33.43
2024-01-31T12:17:28.622Z,33.37
2024-01-31T12:22:34.124Z,39.67
2024-01-31T12:27:38.450Z,40.03
2024-01-31T12:32:44.636Z,37.13
2024-01-31T12:37:48.584Z,33.03
2024-01-31T12:42:51.986Z,35.10
2024-01-31T12:47:56.168Z,42.70
2024-01-31T12:52:59.706Z,33.17
2024-01-31T12:58:03.660Z,35.37
2024-01-31T13:03:07.040Z,35.93
2024-01-31T13:08:11.288Z,37.17
2024-01-31T13:13:15.244Z,31.80
2024-01-31T13:18:18.845Z,28.30
2024-01-31T13:23:22.492Z,31.47
2024-01-31T13:28:25.985Z,37.37
2024-01-31T13:33:29.787Z,23.53
2024-01-31T13:38:33.280Z,28.10
2024-01-31T13:43:36.561Z,27.17
2024-01-31T13:48:40.222Z,25.03
2024-01-31T13:53:43.732Z,20.57
2024-01-31T13:58:47.411Z,23.63
2024-01-31T14:03:50.922Z,32.27
2024-01-31T14:08:54.402Z,31.00
2024-01-31T14:13:57.940Z,30.80
2024-01-31T14:19:01.444Z,35.23
2024-01-31T14:24:12.472Z,34.60
2024-01-31T14:29:21.581Z,35.70
2024-01-31T14:34:25.315Z,36.50
2024-01-31T14:39:28.931Z,44.23
2024-01-31T14:44:34.480Z,31.67
2024-01-31T14:49:38.193Z,36.70
2024-01-31T14:54:41.720Z,38.90
2024-01-31T14:59:45.203Z,38.27
2024-01-31T15:04:49.144Z,44.17
2024-01-31T15:09:52.565Z,42.73
2024-01-31T15:14:55.974Z,40.00
2024-01-31T15:20:00.410Z,42.97
2024-01-31T15:25:05.100Z,44.93
2024-01-31T15:30:09.641Z,43.90
2024-01-31T15:35:13.368Z,44.57
2024-01-31T15:40:16.895Z,47.77
2024-01-31T15:45:22.789Z,39.57
2024-01-31T15:50:27.363Z,36.87
2024-01-31T15:55:31.082Z,36.30
2024-01-31T16:00:34.747Z,43.10
2024-01-31T16:05:40.320Z,47.33
2024-01-31T16:10:44.010Z,34.73
2024-01-31T16:15:50.384Z,46.03
2024-01-31T16:20:54.042Z,49.40
2024-01-31T16:25:59.344Z,47.40
2024-01-31T16:31:06.598Z,47.33
2024-01-31T16:36:17.818Z,51.20
2024-01-31T16:41:24.949Z,44.07
2024-01-31T16:46:28.578Z,46.73
2024-01-31T16:51:32.914Z,61.47
2024-01-31T16:56:36.405Z,50.93
2024-01-31T17:01:43.656Z,58.60
2024-01-31T17:06:48.884Z,55.57
2024-01-31T17:11:54.100Z,64.93
2024-01-31T17:16:58.249Z,59.90
2024-01-31T17:22:02.295Z,57.97
2024-01-31T17:27:06.808Z,57.83
2024-01-31T17:32:13.843Z,61.10
2024-01-31T17:37:18.259Z,49.03
2024-01-31T17:42:23.815Z,41.17
2024-01-31T17:47:27.707Z,42.87
2024-01-31T17:52:31.774Z,39.73
2024-01-31T17:57:36.132Z,44.73
2024-01-31T18:02:40.081Z,40.03
2024-01-31T18:07:44.639Z,47.47
2024-01-31T18:12:48.381Z,40.67
2024-01-31T18:17:52.277Z,36.63
2024-01-31T18:22:55.994Z,71.37
2024-01-31T18:27:59.870Z,78.77
2024-01-31T18:33:04.668Z,65.00
2024-01-31T18:38:08.250Z,45.63
2024-01-31T18:43:12.597Z,42.10
2024-01-31T18:48:16.519Z,40.77
2024-01-31T18:53:20.514Z,43.83
2024-01-31T18:58:26.331Z,46.90
2024-01-31T19:03:29.740Z,49.33
2024-01-31T19:08:33.926Z,53.53
2024-01-31T19:13:39.804Z,65.37
2024-01-31T19:18:43.364Z,47.87
2024-01-31T19:23:47.956Z,52.80
2024-01-31T19:28:54.305Z,56.13
2024-01-31T19:33:57.821Z,51.33
2024-01-31T19:39:01.427Z,57.67
2024-01-31T19:44:05.029Z,50.40
2024-01-31T19:49:08.746Z,61.97
2024-01-31T19:54:13.309Z,63.30
2024-01-31T19:59:17.864Z,47.83
2024-01-31T20:04:21.651Z,45.10
2024-01-31T20:09:25.077Z,48.00
2024-01-31T20:14:28.740Z,47.30
2024-01-31T20:19:32.370Z,37.57
2024-01-31T20:24:35.858Z,44.97
2024-01-31T20:29:39.431Z,51.13
2024-01-31T20:34:43.020Z,66.60
2024-01-31T20:39:46.495Z,73.53
2024-01-31T20:44:49.772Z,79.20
2024-01-31T20:49:53.523Z,98.53
2024-01-31T20:54:57.104Z,79.93
2024-01-31T21:00:00.624Z,86.30
2024-01-31T21:05:08.087Z,65.53
2024-01-31T21:10:15.125Z,79.17
2024-01-31T21:15:18.831Z,94.20
2024-01-31T21:20:22.587Z,89.83
2024-01-31T21:25:26.945Z,136.47
2024-01-31T21:30:30.408Z,134.67
2024-01-31T21:35:33.806Z,102.67
2024-01-31T21:40:37.023Z,64.47
2024-01-31T21:45:40.624Z,60.20
2024-01-31T21:50:44.057Z,63.50
2024-01-31T21:55:48.393Z,48.07
2024-01-31T22:00:51.775Z,65.47
2024-01-31T22:05:56.141Z,60.73
2024-01-31T22:10:59.645Z,60.67
2024-01-31T22:16:05.052Z,56.23
2024-01-31T22:21:08.486Z,54.27
2024-01-31T22:26:12.033Z,58.87
2024-01-31T22:31:15.698Z,48.73
2024-01-31T22:36:19.154Z,51.93
2024-01-31T22:41:22.861Z,61.70
2024-01-31T22:46:26.792Z,87.70
2024-01-31T22:51:30.382Z,90.77
2024-01-31T22:56:35.241Z,63.47
2024-01-31T23:01:38.796Z,49.33
2024-01-31T23:06:42.594Z,43.30
2024-01-31T23:11:47.097Z,56.33
2024-01-31T23:16:50.723Z,60.70
2024-01-31T23:21:53.937Z,56.80
2024-01-31T23:26:57.514Z,51.67
2024-01-31T23:32:00.906Z,56.80
2024-01-31T23:37:05.039Z,45.50
2024-01-31T23:42:08.571Z,47.57
2024-01-31T23:47:12.122Z,59.50
2024-01-31T23:52:15.535Z,57.23
2024-01-31T23:57:19.137Z,55.10
